sensor_id;sensor_type;location;lat;lon;timestamp;P1;durP1;ratioP1;P2;durP2;ratioP2
85523;SDS011;75932;48.616;9.270;2024-02-15T00:01:01;23.00;;;12.90;;
85523;SDS011;75932;48.616;9.270;2024-02-15T00:03:26;21.83;;;17.63;;
85523;SDS011;75932;48.616;9.270;2024-02-15T00:05:52;23.40;;;15.75;;
85523;SDS011;75932;48.616;9.270;2024-02-15T00:08:17;19.35;;;16.48;;
85523;SDS011;75932;48.616;9.270;2024-02-15T00:10:46;16.65;;;13.25;;
85523;SDS011;75932;48.616;9.270;2024-02-15T00:13:12;16.48;;;14.63;;
85523;SDS011;75932;48.616;9.270;2024-02-15T00:15:37;19.85;;;16.50;;
85523;SDS011;75932;48.616;9.270;2024-02-15T00:18:03;14.73;;;13.17;;
85523;SDS011;75932;48.616;9.270;2024-02-15T00:20:28;13.93;;;10.13;;
85523;SDS011;75932;48.616;9.270;2024-02-15T00:22:54;17.77;;;15.73;;
85523;SDS011;75932;48.616;9.270;2024-02-15T00:25:20;16.20;;;12.82;;
85523;SDS011;75932;48.616;9.270;2024-02-15T00:27:46;14.03;;;10.90;;
85523;SDS011;75932;48.616;9.270;2024-02-15T00:30:11;19.45;;;14.88;;
85523;SDS011;75932;48.616;9.270;2024-02-15T00:32:37;21.50;;;17.40;;
85523;SDS011;75932;48.616;9.270;2024-02-15T00:35:03;30.02;;;23.05;;
85523;SDS011;75932;48.616;9.270;2024-02-15T00:37:34;28.33;;;19.73;;
85523;SDS011;75932;48.616;9.270;2024-02-15T00:40:03;19.73;;;14.25;;
85523;SDS011;75932;48.616;9.270;2024-02-15T00:42:29;25.25;;;19.40;;
85523;SDS011;75932;48.616;9.270;2024-02-15T00:44:56;23.70;;;18.15;;
85523;SDS011;75932;48.616;9.270;2024-02-15T00:47:22;22.83;;;17.50;;
85523;SDS011;75932;48.616;9.270;2024-02-15T00:49:47;23.40;;;16.73;;
85523;SDS011;75932;48.616;9.270;2024-02-15T00:52:12;22.03;;;17.40;;
85523;SDS011;75932;48.616;9.270;2024-02-15T00:54:38;23.20;;;18.08;;
85523;SDS011;75932;48.616;9.270;2024-02-15T00:57:03;22.83;;;16.27;;
85523;SDS011;75932;48.616;9.270;2024-02-15T00:59:28;19.48;;;14.48;;
85523;SDS011;75932;48.616;9.270;2024-02-15T01:01:54;14.03;;;12.57;;
85523;SDS011;75932;48.616;9.270;2024-02-15T01:04:19;17.00;;;15.32;;
85523;SDS011;75932;48.616;9.270;2024-02-15T01:06:45;15.63;;;13.98;;
85523;SDS011;75932;48.616;9.270;2024-02-15T01:09:10;15.45;;;12.65;;
85523;SDS011;75932;48.616;9.270;2024-02-15T01:11:36;14.95;;;12.52;;
85523;SDS011;75932;48.616;9.270;2024-02-15T01:14:02;15.50;;;13.93;;
85523;SDS011;75932;48.616;9.270;2024-02-15T01:16:28;14.23;;;11.88;;
85523;SDS011;75932;48.616;9.270;2024-02-15T01:18:53;14.57;;;13.30;;
85523;SDS011;75932;48.616;9.270;2024-02-15T01:21:20;13.70;;;10.15;;
85523;SDS011;75932;48.616;9.270;2024-02-15T01:23:47;11.45;;;9.32;;
85523;SDS011;75932;48.616;9.270;2024-02-15T01:26:12;15.10;;;13.70;;
85523;SDS011;75932;48.616;9.270;2024-02-15T01:28:39;10.45;;;9.20;;
85523;SDS011;75932;48.616;9.270;2024-02-15T01:31:08;12.40;;;11.35;;
85523;SDS011;75932;48.616;9.270;2024-02-15T01:33:35;15.35;;;14.02;;
85523;SDS011;75932;48.616;9.270;2024-02-15T01:36:01;12.68;;;11.55;;
85523;SDS011;75932;48.616;9.270;2024-02-15T01:38:27;16.77;;;15.60;;
85523;SDS011;75932;48.616;9.270;2024-02-15T01:40:55;9.82;;;8.95;;
85523;SDS011;75932;48.616;9.270;2024-02-15T01:43:20;10.83;;;9.97;;
85523;SDS011;75932;48.616;9.270;2024-02-15T01:45:45;9.40;;;8.50;;
85523;SDS011;75932;48.616;9.270;2024-02-15T01:48:13;11.45;;;10.55;;
85523;SDS011;75932;48.616;9.270;2024-02-15T01:50:40;10.45;;;9.63;;
85523;SDS011;75932;48.616;9.270;2024-02-15T01:53:06;10.52;;;9.80;;
85523;SDS011;75932;48.616;9.270;2024-02-15T01:55:33;9.95;;;9.05;;
85523;SDS011;75932;48.616;9.270;2024-02-15T01:57:59;11.82;;;10.63;;
85523;SDS011;75932;48.616;9.270;2024-02-15T02:00:26;7.85;;;6.88;;
85523;SDS011;75932;48.616;9.270;2024-02-15T02:02:51;10.88;;;9.82;;
85523;SDS011;75932;48.616;9.270;2024-02-15T02:05:19;10.98;;;9.98;;
85523;SDS011;75932;48.616;9.270;2024-02-15T02:07:44;12.13;;;10.85;;
85523;SDS011;75932;48.616;9.270;2024-02-15T02:10:10;13.40;;;10.87;;
85523;SDS011;75932;48.616;9.270;2024-02-15T02:12:39;12.27;;;11.30;;
85523;SDS011;75932;48.616;9.270;2024-02-15T02:15:09;10.60;;;9.57;;
85523;SDS011;75932;48.616;9.270;2024-02-15T02:17:36;9.23;;;8.52;;
85523;SDS011;75932;48.616;9.270;2024-02-15T02:20:01;9.15;;;8.43;;
85523;SDS011;75932;48.616;9.270;2024-02-15T02:22:33;7.85;;;6.05;;
85523;SDS011;75932;48.616;9.270;2024-02-15T02:25:06;11.57;;;10.68;;
85523;SDS011;75932;48.616;9.270;2024-02-15T02:27:35;9.45;;;6.82;;
85523;SDS011;75932;48.616;9.270;2024-02-15T02:30:05;10.30;;;9.10;;
85523;SDS011;75932;48.616;9.270;2024-02-15T02:32:39;14.82;;;13.10;;
85523;SDS011;75932;48.616;9.270;2024-02-15T02:35:05;16.20;;;14.63;;
85523;SDS011;75932;48.616;9.270;2024-02-15T02:37:32;10.30;;;9.25;;
85523;SDS011;75932;48.616;9.270;2024-02-15T02:40:01;12.57;;;11.30;;
85523;SDS011;75932;48.616;9.270;2024-02-15T02:42:27;11.38;;;10.27;;
85523;SDS011;75932;48.616;9.270;2024-02-15T02:44:53;13.77;;;12.45;;
85523;SDS011;75932;48.616;9.270;2024-02-15T02:47:18;13.23;;;12.00;;
85523;SDS011;75932;48.616;9.270;2024-02-15T02:49:44;11.33;;;10.37;;
85523;SDS011;75932;48.616;9.270;2024-02-15T02:52:09;15.40;;;14.13;;
85523;SDS011;75932;48.616;9.270;2024-02-15T02:54:34;9.80;;;8.37;;
85523;SDS011;75932;48.616;9.270;2024-02-15T02:57:00;11.47;;;10.17;;
85523;SDS011;75932;48.616;9.270;2024-02-15T02:59:25;12.57;;;11.57;;
85523;SDS011;75932;48.616;9.270;2024-02-15T03:01:50;11.43;;;10.43;;
85523;SDS011;75932;48.616;9.270;2024-02-15T03:04:16;10.67;;;9.50;;
85523;SDS011;75932;48.616;9.270;2024-02-15T03:09:09;11.07;;;10.18;;
85523;SDS011;75932;48.616;9.270;2024-02-15T03:11:36;13.07;;;12.07;;
85523;SDS011;75932;48.616;9.270;2024-02-15T03:14:02;12.00;;;11.18;;
85523;SDS011;75932;48.616;9.270;2024-02-15T03:16:29;7.38;;;5.82;;
85523;SDS011;75932;48.616;9.270;2024-02-15T03:18:58;8.90;;;8.10;;
85523;SDS011;75932;48.616;9.270;2024-02-15T03:21:26;10.82;;;9.95;;
85523;SDS011;75932;48.616;9.270;2024-02-15T03:23:52;9.52;;;8.65;;
85523;SDS011;75932;48.616;9.270;2024-02-15T03:26:21;9.53;;;8.83;;
85523;SDS011;75932;48.616;9.270;2024-02-15T03:28:55;11.02;;;9.85;;
85523;SDS011;75932;48.616;9.270;2024-02-15T03:31:20;9.93;;;9.02;;
85523;SDS011;75932;48.616;9.270;2024-02-15T03:33:45;11.40;;;10.40;;
85523;SDS011;75932;48.616;9.270;2024-02-15T03:36:15;11.40;;;10.00;;
85523;SDS011;75932;48.616;9.270;2024-02-15T03:38:43;11.82;;;7.75;;
85523;SDS011;75932;48.616;9.270;2024-02-15T03:41:09;14.52;;;13.13;;
85523;SDS011;75932;48.616;9.270;2024-02-15T03:43:35;13.97;;;9.67;;
85523;SDS011;75932;48.616;9.270;2024-02-15T03:46:03;18.27;;;13.85;;
85523;SDS011;75932;48.616;9.270;2024-02-15T03:48:29;22.40;;;15.73;;
85523;SDS011;75932;48.616;9.270;2024-02-15T03:50:55;39.25;;;22.67;;
85523;SDS011;75932;48.616;9.270;2024-02-15T03:53:21;49.42;;;24.00;;
85523;SDS011;75932;48.616;9.270;2024-02-15T03:55:47;39.50;;;20.43;;
85523;SDS011;75932;48.616;9.270;2024-02-15T03:58:12;36.10;;;24.10;;
85523;SDS011;75932;48.616;9.270;2024-02-15T04:00:39;32.85;;;19.60;;
85523;SDS011;75932;48.616;9.270;2024-02-15T04:03:05;27.25;;;13.95;;
85523;SDS011;75932;48.616;9.270;2024-02-15T04:05:31;24.60;;;17.43;;
85523;SDS011;75932;48.616;9.270;2024-02-15T04:07:56;23.40;;;17.23;;
85523;SDS011;75932;48.616;9.270;2024-02-15T04:10:21;23.03;;;18.13;;
85523;SDS011;75932;48.616;9.270;2024-02-15T04:12:49;25.55;;;17.42;;
85523;SDS011;75932;48.616;9.270;2024-02-15T04:15:14;17.37;;;10.60;;
85523;SDS011;75932;48.616;9.270;2024-02-15T04:17:42;16.10;;;13.13;;
85523;SDS011;75932;48.616;9.270;2024-02-15T04:20:09;14.27;;;12.68;;
85523;SDS011;75932;48.616;9.270;2024-02-15T04:22:36;15.52;;;13.75;;
85523;SDS011;75932;48.616;9.270;2024-02-15T04:25:05;15.48;;;11.77;;
85523;SDS011;75932;48.616;9.270;2024-02-15T04:27:31;14.27;;;10.95;;
85523;SDS011;75932;48.616;9.270;2024-02-15T04:29:57;14.40;;;13.00;;
85523;SDS011;75932;48.616;9.270;2024-02-15T04:32:22;12.23;;;10.93;;
85523;SDS011;75932;48.616;9.270;2024-02-15T04:34:47;12.97;;;11.20;;
85523;SDS011;75932;48.616;9.270;2024-02-15T04:37:13;11.77;;;10.60;;
85523;SDS011;75932;48.616;9.270;2024-02-15T04:39:39;12.13;;;10.95;;
85523;SDS011;75932;48.616;9.270;2024-02-15T04:42:05;12.57;;;11.38;;
85523;SDS011;75932;48.616;9.270;2024-02-15T04:44:32;10.65;;;6.65;;
85523;SDS011;75932;48.616;9.270;2024-02-15T04:47:00;11.45;;;10.32;;
85523;SDS011;75932;48.616;9.270;2024-02-15T04:49:32;11.93;;;10.82;;
85523;SDS011;75932;48.616;9.270;2024-02-15T04:51:57;11.10;;;10.07;;
85523;SDS011;75932;48.616;9.270;2024-02-15T04:54:23;11.20;;;10.10;;
85523;SDS011;75932;48.616;9.270;2024-02-15T04:56:48;11.55;;;10.55;;
85523;SDS011;75932;48.616;9.270;2024-02-15T04:59:17;11.80;;;10.27;;
85523;SDS011;75932;48.616;9.270;2024-02-15T05:01:44;13.50;;;12.27;;
85523;SDS011;75932;48.616;9.270;2024-02-15T05:04:10;14.80;;;13.60;;
85523;SDS011;75932;48.616;9.270;2024-02-15T05:06:36;11.65;;;10.70;;
85523;SDS011;75932;48.616;9.270;2024-02-15T05:09:02;12.75;;;11.57;;
85523;SDS011;75932;48.616;9.270;2024-02-15T05:11:37;12.63;;;11.27;;
85523;SDS011;75932;48.616;9.270;2024-02-15T05:14:06;12.77;;;7.35;;
85523;SDS011;75932;48.616;9.270;2024-02-15T05:16:32;8.90;;;8.10;;
85523;SDS011;75932;48.616;9.270;2024-02-15T05:18:58;11.18;;;10.18;;
85523;SDS011;75932;48.616;9.270;2024-02-15T05:21:24;9.57;;;7.45;;
85523;SDS011;75932;48.616;9.270;2024-02-15T05:23:49;10.77;;;9.88;;
85523;SDS011;75932;48.616;9.270;2024-02-15T05:26:14;11.97;;;9.43;;
85523;SDS011;75932;48.616;9.270;2024-02-15T05:28:48;13.02;;;11.75;;
85523;SDS011;75932;48.616;9.270;2024-02-15T05:31:14;9.30;;;8.43;;
85523;SDS011;75932;48.616;9.270;2024-02-15T05:33:42;11.45;;;10.45;;
85523;SDS011;75932;48.616;9.270;2024-02-15T05:36:20;10.32;;;9.43;;
85523;SDS011;75932;48.616;9.270;2024-02-15T05:38:46;11.80;;;10.10;;
85523;SDS011;75932;48.616;9.270;2024-02-15T05:41:13;10.27;;;9.43;;
85523;SDS011;75932;48.616;9.270;2024-02-15T05:43:39;9.73;;;8.15;;
85523;SDS011;75932;48.616;9.270;2024-02-15T05:46:06;12.48;;;11.38;;
85523;SDS011;75932;48.616;9.270;2024-02-15T05:48:32;8.43;;;7.65;;
85523;SDS011;75932;48.616;9.270;2024-02-15T05:51:01;9.30;;;8.40;;
85523;SDS011;75932;48.616;9.270;2024-02-15T05:53:31;10.70;;;9.77;;
85523;SDS011;75932;48.616;9.270;2024-02-15T05:56:01;12.93;;;11.95;;
85523;SDS011;75932;48.616;9.270;2024-02-15T05:58:30;12.48;;;11.50;;
85523;SDS011;75932;48.616;9.270;2024-02-15T06:00:56;10.65;;;9.75;;
85523;SDS011;75932;48.616;9.270;2024-02-15T06:03:26;10.30;;;9.35;;
85523;SDS011;75932;48.616;9.270;2024-02-15T06:05:54;10.20;;;9.18;;
85523;SDS011;75932;48.616;9.270;2024-02-15T06:08:26;11.50;;;10.60;;
85523;SDS011;75932;48.616;9.270;2024-02-15T06:10:52;9.93;;;8.95;;
85523;SDS011;75932;48.616;9.270;2024-02-15T06:13:20;11.88;;;10.80;;
85523;SDS011;75932;48.616;9.270;2024-02-15T06:15:46;10.02;;;9.25;;
85523;SDS011;75932;48.616;9.270;2024-02-15T06:18:14;10.60;;;9.48;;
85523;SDS011;75932;48.616;9.270;2024-02-15T06:20:41;9.95;;;9.15;;
85523;SDS011;75932;48.616;9.270;2024-02-15T06:23:07;10.20;;;9.30;;
85523;SDS011;75932;48.616;9.270;2024-02-15T06:25:34;8.15;;;7.28;;
85523;SDS011;75932;48.616;9.270;2024-02-15T06:28:00;10.50;;;9.45;;
85523;SDS011;75932;48.616;9.270;2024-02-15T06:30:28;10.88;;;9.90;;
85523;SDS011;75932;48.616;9.270;2024-02-15T06:33:12;13.57;;;9.15;;
85523;SDS011;75932;48.616;9.270;2024-02-15T06:35:58;10.73;;;9.88;;
85523;SDS011;75932;48.616;9.270;2024-02-15T06:38:47;10.18;;;9.27;;
85523;SDS011;75932;48.616;9.270;2024-02-15T06:41:31;10.20;;;9.35;;
85523;SDS011;75932;48.616;9.270;2024-02-15T06:43:56;12.00;;;10.70;;
85523;SDS011;75932;48.616;9.270;2024-02-15T06:46:22;11.57;;;10.13;;
85523;SDS011;75932;48.616;9.270;2024-02-15T06:48:47;12.07;;;10.40;;
85523;SDS011;75932;48.616;9.270;2024-02-15T06:51:13;11.90;;;10.70;;
85523;SDS011;75932;48.616;9.270;2024-02-15T06:53:40;13.13;;;11.88;;
85523;SDS011;75932;48.616;9.270;2024-02-15T06:56:08;12.02;;;10.95;;
85523;SDS011;75932;48.616;9.270;2024-02-15T06:58:34;10.48;;;9.55;;
85523;SDS011;75932;48.616;9.270;2024-02-15T07:01:01;11.70;;;10.60;;
85523;SDS011;75932;48.616;9.270;2024-02-15T07:03:28;13.90;;;12.68;;
85523;SDS011;75932;48.616;9.270;2024-02-15T07:05:55;10.77;;;9.77;;
85523;SDS011;75932;48.616;9.270;2024-02-15T07:08:21;11.32;;;10.32;;
85523;SDS011;75932;48.616;9.270;2024-02-15T07:10:49;10.57;;;9.60;;
85523;SDS011;75932;48.616;9.270;2024-02-15T07:13:15;11.55;;;10.43;;
85523;SDS011;75932;48.616;9.270;2024-02-15T07:15:40;8.73;;;7.43;;
85523;SDS011;75932;48.616;9.270;2024-02-15T07:18:05;9.87;;;8.87;;
85523;SDS011;75932;48.616;9.270;2024-02-15T07:20:32;11.02;;;10.02;;
85523;SDS011;75932;48.616;9.270;2024-02-15T07:22:58;11.82;;;9.98;;
85523;SDS011;75932;48.616;9.270;2024-02-15T07:25:23;10.32;;;9.43;;
85523;SDS011;75932;48.616;9.270;2024-02-15T07:27:48;7.25;;;6.53;;
85523;SDS011;75932;48.616;9.270;2024-02-15T07:30:14;7.97;;;6.47;;
85523;SDS011;75932;48.616;9.270;2024-02-15T07:32:39;5.82;;;5.22;;
85523;SDS011;75932;48.616;9.270;2024-02-15T07:35:05;10.20;;;9.30;;
85523;SDS011;75932;48.616;9.270;2024-02-15T07:37:32;6.63;;;6.03;;
85523;SDS011;75932;48.616;9.270;2024-02-15T07:39:58;6.80;;;5.53;;
85523;SDS011;75932;48.616;9.270;2024-02-15T07:42:28;7.18;;;6.55;;
85523;SDS011;75932;48.616;9.270;2024-02-15T07:44:54;7.88;;;6.13;;
85523;SDS011;75932;48.616;9.270;2024-02-15T07:47:20;7.35;;;6.03;;
85523;SDS011;75932;48.616;9.270;2024-02-15T07:49:49;6.45;;;5.75;;
85523;SDS011;75932;48.616;9.270;2024-02-15T07:52:16;7.25;;;4.97;;
85523;SDS011;75932;48.616;9.270;2024-02-15T07:54:42;7.93;;;5.70;;
85523;SDS011;75932;48.616;9.270;2024-02-15T07:57:07;6.77;;;5.50;;
85523;SDS011;75932;48.616;9.270;2024-02-15T07:59:34;6.75;;;5.63;;
85523;SDS011;75932;48.616;9.270;2024-02-15T08:02:00;6.82;;;5.78;;
85523;SDS011;75932;48.616;9.270;2024-02-15T08:04:26;6.65;;;5.75;;
85523;SDS011;75932;48.616;9.270;2024-02-15T08:06:51;6.57;;;5.73;;
85523;SDS011;75932;48.616;9.270;2024-02-15T08:09:18;7.80;;;5.07;;
85523;SDS011;75932;48.616;9.270;2024-02-15T08:11:46;6.30;;;5.03;;
85523;SDS011;75932;48.616;9.270;2024-02-15T08:14:12;6.68;;;5.93;;
85523;SDS011;75932;48.616;9.270;2024-02-15T08:16:40;6.32;;;5.55;;
85523;SDS011;75932;48.616;9.270;2024-02-15T08:19:08;7.65;;;5.55;;
85523;SDS011;75932;48.616;9.270;2024-02-15T08:21:34;7.72;;;5.28;;
85523;SDS011;75932;48.616;9.270;2024-02-15T08:26:30;10.30;;;4.82;;
85523;SDS011;75932;48.616;9.270;2024-02-15T08:29:01;5.57;;;4.97;;
85523;SDS011;75932;48.616;9.270;2024-02-15T08:33:53;6.23;;;5.60;;
85523;SDS011;75932;48.616;9.270;2024-02-15T08:36:18;7.17;;;5.53;;
85523;SDS011;75932;48.616;9.270;2024-02-15T08:38:43;5.83;;;5.27;;
85523;SDS011;75932;48.616;9.270;2024-02-15T08:41:09;6.97;;;5.33;;
85523;SDS011;75932;48.616;9.270;2024-02-15T08:43:36;4.35;;;3.95;;
85523;SDS011;75932;48.616;9.270;2024-02-15T08:46:05;6.07;;;5.18;;
85523;SDS011;75932;48.616;9.270;2024-02-15T08:48:31;6.15;;;5.35;;
85523;SDS011;75932;48.616;9.270;2024-02-15T08:50:57;6.03;;;4.78;;
85523;SDS011;75932;48.616;9.270;2024-02-15T08:53:22;5.63;;;4.85;;
85523;SDS011;75932;48.616;9.270;2024-02-15T08:55:49;8.90;;;4.43;;
85523;SDS011;75932;48.616;9.270;2024-02-15T08:58:15;6.75;;;6.20;;
85523;SDS011;75932;48.616;9.270;2024-02-15T09:00:40;6.57;;;5.97;;
85523;SDS011;75932;48.616;9.270;2024-02-15T09:03:11;5.70;;;5.20;;
85523;SDS011;75932;48.616;9.270;2024-02-15T09:05:38;5.85;;;5.32;;
85523;SDS011;75932;48.616;9.270;2024-02-15T09:08:03;5.22;;;4.32;;
85523;SDS011;75932;48.616;9.270;2024-02-15T09:10:32;8.32;;;4.75;;
85523;SDS011;75932;48.616;9.270;2024-02-15T09:12:58;6.35;;;4.55;;
85523;SDS011;75932;48.616;9.270;2024-02-15T09:15:23;6.07;;;5.05;;
85523;SDS011;75932;48.616;9.270;2024-02-15T09:17:49;5.80;;;3.78;;
85523;SDS011;75932;48.616;9.270;2024-02-15T09:20:16;4.90;;;4.25;;
85523;SDS011;75932;48.616;9.270;2024-02-15T09:22:48;6.15;;;4.40;;
85523;SDS011;75932;48.616;9.270;2024-02-15T09:25:14;5.25;;;4.75;;
85523;SDS011;75932;48.616;9.270;2024-02-15T09:27:40;6.43;;;5.25;;
85523;SDS011;75932;48.616;9.270;2024-02-15T09:30:08;4.53;;;4.13;;
85523;SDS011;75932;48.616;9.270;2024-02-15T09:32:37;7.82;;;6.68;;
85523;SDS011;75932;48.616;9.270;2024-02-15T09:35:04;6.63;;;4.72;;
85523;SDS011;75932;48.616;9.270;2024-02-15T09:37:36;5.32;;;4.20;;
85523;SDS011;75932;48.616;9.270;2024-02-15T09:40:04;5.10;;;4.60;;
85523;SDS011;75932;48.616;9.270;2024-02-15T09:42:34;4.03;;;3.70;;
85523;SDS011;75932;48.616;9.270;2024-02-15T09:45:00;7.63;;;7.05;;
85523;SDS011;75932;48.616;9.270;2024-02-15T09:47:28;7.60;;;6.85;;
85523;SDS011;75932;48.616;9.270;2024-02-15T09:50:08;5.25;;;4.75;;
85523;SDS011;75932;48.616;9.270;2024-02-15T09:52:39;6.40;;;3.83;;
85523;SDS011;75932;48.616;9.270;2024-02-15T09:55:06;9.27;;;3.80;;
85523;SDS011;75932;48.616;9.270;2024-02-15T09:57:37;4.88;;;3.40;;
85523;SDS011;75932;48.616;9.270;2024-02-15T10:00:03;4.80;;;4.15;;
85523;SDS011;75932;48.616;9.270;2024-02-15T10:02:32;5.30;;;3.75;;
85523;SDS011;75932;48.616;9.270;2024-02-15T10:04:58;4.95;;;4.15;;
85523;SDS011;75932;48.616;9.270;2024-02-15T10:07:24;5.38;;;4.35;;
85523;SDS011;75932;48.616;9.270;2024-02-15T10:09:51;5.57;;;5.07;;
85523;SDS011;75932;48.616;9.270;2024-02-15T10:12:17;6.88;;;4.93;;
85523;SDS011;75932;48.616;9.270;2024-02-15T10:14:50;5.05;;;4.00;;
85523;SDS011;75932;48.616;9.270;2024-02-15T10:17:16;7.15;;;3.75;;
85523;SDS011;75932;48.616;9.270;2024-02-15T10:19:43;7.53;;;6.68;;
85523;SDS011;75932;48.616;9.270;2024-02-15T10:22:10;4.70;;;4.22;;
85523;SDS011;75932;48.616;9.270;2024-02-15T10:24:36;4.85;;;4.28;;
85523;SDS011;75932;48.616;9.270;2024-02-15T10:27:04;5.13;;;4.57;;
85523;SDS011;75932;48.616;9.270;2024-02-15T10:29:33;4.65;;;4.00;;
85523;SDS011;75932;48.616;9.270;2024-02-15T10:31:59;5.30;;;3.70;;
85523;SDS011;75932;48.616;9.270;2024-02-15T10:34:26;3.95;;;2.90;;
85523;SDS011;75932;48.616;9.270;2024-02-15T10:37:16;3.72;;;3.25;;
85523;SDS011;75932;48.616;9.270;2024-02-15T10:40:03;4.93;;;3.28;;
85523;SDS011;75932;48.616;9.270;2024-02-15T10:42:30;4.13;;;2.90;;
85523;SDS011;75932;48.616;9.270;2024-02-15T10:44:59;7.50;;;4.28;;
85523;SDS011;75932;48.616;9.270;2024-02-15T10:47:29;4.50;;;3.17;;
85523;SDS011;75932;48.616;9.270;2024-02-15T10:49:55;4.82;;;2.85;;
85523;SDS011;75932;48.616;9.270;2024-02-15T10:52:24;4.68;;;3.15;;
85523;SDS011;75932;48.616;9.270;2024-02-15T10:55:01;3.80;;;3.17;;
85523;SDS011;75932;48.616;9.270;2024-02-15T10:59:56;3.67;;;3.00;;
85523;SDS011;75932;48.616;9.270;2024-02-15T11:02:36;7.57;;;5.80;;
85523;SDS011;75932;48.616;9.270;2024-02-15T11:05:06;4.32;;;2.88;;
85523;SDS011;75932;48.616;9.270;2024-02-15T11:07:35;4.70;;;3.90;;
85523;SDS011;75932;48.616;9.270;2024-02-15T11:10:01;3.67;;;2.80;;
85523;SDS011;75932;48.616;9.270;2024-02-15T11:12:33;8.48;;;3.13;;
85523;SDS011;75932;48.616;9.270;2024-02-15T11:14:59;3.83;;;3.00;;
85523;SDS011;75932;48.616;9.270;2024-02-15T11:17:44;3.03;;;2.72;;
85523;SDS011;75932;48.616;9.270;2024-02-15T11:22:57;4.88;;;3.10;;
85523;SDS011;75932;48.616;9.270;2024-02-15T11:25:36;4.25;;;3.85;;
85523;SDS011;75932;48.616;9.270;2024-02-15T11:30:53;3.42;;;3.05;;
85523;SDS011;75932;48.616;9.270;2024-02-15T11:33:28;5.30;;;3.08;;
85523;SDS011;75932;48.616;9.270;2024-02-15T11:36:06;6.25;;;4.85;;
85523;SDS011;75932;48.616;9.270;2024-02-15T11:38:38;5.80;;;2.42;;
85523;SDS011;75932;48.616;9.270;2024-02-15T11:41:10;3.83;;;2.53;;
85523;SDS011;75932;48.616;9.270;2024-02-15T11:46:08;4.10;;;3.60;;
85523;SDS011;75932;48.616;9.270;2024-02-15T11:51:01;5.25;;;4.85;;
85523;SDS011;75932;48.616;9.270;2024-02-15T11:53:26;5.07;;;3.33;;
85523;SDS011;75932;48.616;9.270;2024-02-15T11:55:51;5.07;;;2.73;;
85523;SDS011;75932;48.616;9.270;2024-02-15T12:00:59;3.70;;;3.28;;
85523;SDS011;75932;48.616;9.270;2024-02-15T12:03:51;5.20;;;3.67;;
85523;SDS011;75932;48.616;9.270;2024-02-15T12:06:36;6.68;;;6.05;;
85523;SDS011;75932;48.616;9.270;2024-02-15T12:09:20;6.10;;;3.15;;
85523;SDS011;75932;48.616;9.270;2024-02-15T12:12:04;4.53;;;2.83;;
85523;SDS011;75932;48.616;9.270;2024-02-15T12:14:48;5.85;;;3.22;;
85523;SDS011;75932;48.616;9.270;2024-02-15T12:17:32;4.65;;;2.90;;
85523;SDS011;75932;48.616;9.270;2024-02-15T12:20:16;4.20;;;3.80;;
85523;SDS011;75932;48.616;9.270;2024-02-15T12:22:49;3.97;;;3.60;;
85523;SDS011;75932;48.616;9.270;2024-02-15T12:25:15;4.28;;;2.80;;
85523;SDS011;75932;48.616;9.270;2024-02-15T12:27:42;3.47;;;2.63;;
85523;SDS011;75932;48.616;9.270;2024-02-15T12:30:12;4.32;;;3.28;;
85523;SDS011;75932;48.616;9.270;2024-02-15T12:32:38;4.68;;;2.85;;
85523;SDS011;75932;48.616;9.270;2024-02-15T12:35:17;3.80;;;2.63;;
85523;SDS011;75932;48.616;9.270;2024-02-15T12:37:48;4.25;;;2.53;;
85523;SDS011;75932;48.616;9.270;2024-02-15T12:40:36;4.60;;;2.78;;
85523;SDS011;75932;48.616;9.270;2024-02-15T12:43:06;2.75;;;2.55;;
85523;SDS011;75932;48.616;9.270;2024-02-15T12:45:35;4.88;;;3.10;;
85523;SDS011;75932;48.616;9.270;2024-02-15T12:48:03;5.30;;;3.05;;
85523;SDS011;75932;48.616;9.270;2024-02-15T12:50:29;6.88;;;3.72;;
85523;SDS011;75932;48.616;9.270;2024-02-15T12:52:55;2.88;;;2.67;;
85523;SDS011;75932;48.616;9.270;2024-02-15T12:55:27;3.20;;;2.40;;
85523;SDS011;75932;48.616;9.270;2024-02-15T12:57:56;4.38;;;2.63;;
85523;SDS011;75932;48.616;9.270;2024-02-15T13:00:26;4.65;;;3.80;;
85523;SDS011;75932;48.616;9.270;2024-02-15T13:02:57;4.07;;;2.95;;
85523;SDS011;75932;48.616;9.270;2024-02-15T13:05:27;2.60;;;2.28;;
85523;SDS011;75932;48.616;9.270;2024-02-15T13:07:53;4.20;;;3.80;;
85523;SDS011;75932;48.616;9.270;2024-02-15T13:10:21;2.70;;;2.28;;
85523;SDS011;75932;48.616;9.270;2024-02-15T13:12:47;3.45;;;2.85;;
85523;SDS011;75932;48.616;9.270;2024-02-15T13:15:13;5.50;;;2.85;;
85523;SDS011;75932;48.616;9.270;2024-02-15T13:17:43;4.70;;;2.80;;
85523;SDS011;75932;48.616;9.270;2024-02-15T13:20:10;4.13;;;2.58;;
85523;SDS011;75932;48.616;9.270;2024-02-15T13:22:38;5.38;;;2.63;;
85523;SDS011;75932;48.616;9.270;2024-02-15T13:25:05;4.70;;;2.40;;
85523;SDS011;75932;48.616;9.270;2024-02-15T13:27:33;3.50;;;3.05;;
85523;SDS011;75932;48.616;9.270;2024-02-15T13:29:58;6.72;;;3.35;;
85523;SDS011;75932;48.616;9.270;2024-02-15T13:32:24;4.72;;;2.90;;
85523;SDS011;75932;48.616;9.270;2024-02-15T13:34:49;3.17;;;2.67;;
85523;SDS011;75932;48.616;9.270;2024-02-15T13:37:17;4.40;;;2.83;;
85523;SDS011;75932;48.616;9.270;2024-02-15T13:39:43;3.50;;;3.10;;
85523;SDS011;75932;48.616;9.270;2024-02-15T13:42:11;4.70;;;4.28;;
85523;SDS011;75932;48.616;9.270;2024-02-15T13:44:36;5.32;;;2.38;;
85523;SDS011;75932;48.616;9.270;2024-02-15T13:47:02;4.28;;;2.10;;
85523;SDS011;75932;48.616;9.270;2024-02-15T13:49:30;6.20;;;3.83;;
85523;SDS011;75932;48.616;9.270;2024-02-15T13:51:59;5.82;;;3.13;;
85523;SDS011;75932;48.616;9.270;2024-02-15T13:54:29;5.78;;;4.22;;
85523;SDS011;75932;48.616;9.270;2024-02-15T13:56:55;5.82;;;3.17;;
85523;SDS011;75932;48.616;9.270;2024-02-15T13:59:21;4.20;;;2.80;;
85523;SDS011;75932;48.616;9.270;2024-02-15T14:01:47;4.32;;;3.20;;
85523;SDS011;75932;48.616;9.270;2024-02-15T14:04:12;4.93;;;3.13;;
85523;SDS011;75932;48.616;9.270;2024-02-15T14:06:37;6.60;;;3.30;;
85523;SDS011;75932;48.616;9.270;2024-02-15T14:11:36;3.00;;;2.25;;
85523;SDS011;75932;48.616;9.270;2024-02-15T14:14:01;3.97;;;3.20;;
85523;SDS011;75932;48.616;9.270;2024-02-15T14:16:26;4.27;;;2.17;;
85523;SDS011;75932;48.616;9.270;2024-02-15T14:18:52;3.38;;;2.00;;
85523;SDS011;75932;48.616;9.270;2024-02-15T14:21:19;5.53;;;2.75;;
85523;SDS011;75932;48.616;9.270;2024-02-15T14:23:45;7.85;;;3.00;;
85523;SDS011;75932;48.616;9.270;2024-02-15T14:26:10;3.13;;;2.83;;
85523;SDS011;75932;48.616;9.270;2024-02-15T14:28:36;3.63;;;3.20;;
85523;SDS011;75932;48.616;9.270;2024-02-15T14:31:04;4.70;;;3.85;;
85523;SDS011;75932;48.616;9.270;2024-02-15T14:33:48;5.22;;;3.58;;
85523;SDS011;75932;48.616;9.270;2024-02-15T14:36:15;7.28;;;3.72;;
85523;SDS011;75932;48.616;9.270;2024-02-15T14:38:43;5.05;;;3.45;;
85523;SDS011;75932;48.616;9.270;2024-02-15T14:41:09;2.83;;;2.35;;
85523;SDS011;75932;48.616;9.270;2024-02-15T14:43:36;3.80;;;2.95;;
85523;SDS011;75932;48.616;9.270;2024-02-15T14:46:02;4.80;;;2.70;;
85523;SDS011;75932;48.616;9.270;2024-02-15T14:48:30;3.90;;;2.92;;
85523;SDS011;75932;48.616;9.270;2024-02-15T14:50:56;4.45;;;2.80;;
85523;SDS011;75932;48.616;9.270;2024-02-15T14:53:22;4.38;;;3.05;;
85523;SDS011;75932;48.616;9.270;2024-02-15T14:55:48;3.58;;;3.00;;
85523;SDS011;75932;48.616;9.270;2024-02-15T14:58:14;4.38;;;3.00;;
85523;SDS011;75932;48.616;9.270;2024-02-15T15:00:41;4.30;;;3.53;;
85523;SDS011;75932;48.616;9.270;2024-02-15T15:03:08;5.90;;;2.60;;
85523;SDS011;75932;48.616;9.270;2024-02-15T15:05:34;4.10;;;2.63;;
85523;SDS011;75932;48.616;9.270;2024-02-15T15:08:17;4.40;;;2.58;;